createdAt,value
2018-05-19T00:00:08.485Z,9.89
2018-05-19T00:01:08.566Z,9.89
2018-05-19T00:02:08.487Z,9.89
2018-05-19T00:03:08.481Z,9.87
2018-05-19T00:04:08.598Z,9.87
2018-05-19T00:05:08.532Z,9.86
2018-05-19T00:06:08.631Z,9.89
2018-05-19T00:07:08.519Z,9.87
2018-05-19T00:08:08.534Z,9.89
2018-05-19T00:09:08.464Z,9.89
2018-05-19T00:10:08.577Z,9.89
2018-05-19T00:11:08.600Z,9.89
2018-05-19T00:12:08.542Z,9.89
2018-05-19T00:13:08.572Z,9.90
2018-05-19T00:14:08.559Z,9.91
2018-05-19T00:15:08.564Z,9.93
2018-05-19T00:16:08.565Z,9.91
2018-05-19T00:17:08.491Z,9.93
2018-05-19T00:18:08.561Z,9.94
2018-05-19T00:19:08.488Z,9.94
2018-05-19T00:20:08.561Z,9.93
2018-05-19T00:21:08.490Z,9.91
2018-05-19T00:22:08.563Z,9.90
2018-05-19T00:23:08.492Z,9.90
2018-05-19T00:24:08.603Z,9.91
2018-05-19T00:25:08.631Z,9.90
2018-05-19T00:26:08.477Z,9.91
2018-05-19T00:27:08.595Z,9.90
2018-05-19T00:28:08.591Z,9.89
2018-05-19T00:29:08.571Z,9.90
2018-05-19T00:30:08.572Z,9.90
2018-05-19T00:31:08.478Z,9.90
2018-05-19T00:32:08.604Z,9.89
2018-05-19T00:33:08.552Z,9.89
2018-05-19T00:34:08.592Z,9.90
2018-05-19T00:35:08.607Z,9.89
2018-05-19T00:36:08.496Z,9.91
2018-05-19T00:37:08.580Z,9.91
2018-05-19T00:38:08.544Z,9.89
2018-05-19T00:39:08.563Z,9.91
2018-05-19T00:40:08.539Z,9.91
2018-05-19T00:41:08.584Z,9.90
2018-05-19T00:42:08.586Z,9.90
2018-05-19T00:43:08.599Z,9.91
2018-05-19T00:44:08.566Z,9.91
2018-05-19T00:45:08.483Z,9.91
2018-05-19T00:46:08.607Z,9.93
2018-05-19T00:47:08.590Z,9.94
2018-05-19T00:48:08.582Z,9.94
2018-05-19T00:49:08.509Z,9.94
2018-05-19T00:50:08.609Z,9.91
2018-05-19T00:51:08.552Z,9.94
2018-05-19T00:52:08.529Z,9.93
2018-05-19T00:53:08.507Z,9.91
2018-05-19T00:54:08.614Z,9.93
2018-05-19T00:55:08.528Z,9.93
2018-05-19T00:56:08.621Z,9.93
2018-05-19T00:57:08.529Z,9.93
2018-05-19T00:58:08.549Z,9.93
2018-05-19T00:59:08.631Z,9.91
2018-05-19T01:00:08.516Z,9.93
2018-05-19T01:01:08.555Z,9.90
2018-05-19T01:02:08.619Z,9.90
2018-05-19T01:03:08.630Z,9.91
2018-05-19T01:04:08.575Z,9.90
2018-05-19T01:05:08.599Z,9.87
2018-05-19T01:06:08.619Z,9.87
2018-05-19T01:07:08.593Z,9.87
2018-05-19T01:08:08.557Z,9.87
2018-05-19T01:09:08.606Z,9.86
2018-05-19T01:10:08.605Z,9.84
2018-05-19T01:11:08.575Z,9.84
2018-05-19T01:12:08.507Z,9.86
2018-05-19T01:13:08.566Z,9.87
2018-05-19T01:14:08.611Z,9.86
2018-05-19T01:15:08.601Z,9.86
2018-05-19T01:16:08.523Z,9.86
2018-05-19T01:17:08.529Z,9.84
2018-05-19T01:18:08.599Z,9.83
2018-05-19T01:19:08.530Z,9.82
2018-05-19T01:20:08.599Z,9.80
2018-05-19T01:21:08.600Z,9.80
2018-05-19T01:22:08.600Z,9.80
2018-05-19T01:23:08.602Z,9.79
2018-05-19T01:24:08.611Z,9.79
2018-05-19T01:25:08.622Z,9.80
2018-05-19T01:26:08.626Z,9.80
2018-05-19T01:27:08.557Z,9.80
2018-05-19T01:28:08.577Z,9.80
2018-05-19T01:29:08.533Z,9.80
2018-05-19T01:30:08.537Z,9.80
2018-05-19T01:31:08.533Z,9.80
2018-05-19T01:32:08.642Z,9.80
2018-05-19T01:33:08.674Z,9.80
2018-05-19T01:34:08.533Z,9.80
2018-05-19T01:35:08.615Z,9.82
2018-05-19T01:36:08.576Z,9.80
2018-05-19T01:37:08.557Z,9.82
2018-05-19T01:38:08.615Z,9.82
2018-05-19T01:39:08.592Z,9.83
2018-05-19T01:40:08.521Z,9.82
2018-05-19T01:41:08.536Z,9.82
2018-05-19T01:42:08.556Z,9.80
2018-05-19T01:43:08.561Z,9.79
2018-05-19T01:44:08.587Z,9.79
2018-05-19T01:45:08.593Z,9.82
2018-05-19T01:46:08.622Z,9.84
2018-05-19T01:47:08.652Z,9.84
2018-05-19T01:48:08.641Z,9.83
2018-05-19T01:49:08.592Z,9.83
2018-05-19T01:50:08.645Z,9.83
2018-05-19T01:51:08.627Z,9.83
2018-05-19T01:52:08.593Z,9.83
2018-05-19T01:53:08.651Z,9.83
2018-05-19T01:54:08.607Z,9.83
2018-05-19T01:55:08.627Z,9.83
2018-05-19T01:56:08.568Z,9.83
2018-05-19T01:57:08.558Z,9.82
2018-05-19T01:58:08.633Z,9.82
2018-05-19T01:59:08.671Z,9.82
2018-05-19T02:00:08.658Z,9.82
2018-05-19T02:01:08.568Z,9.80
2018-05-19T02:02:08.666Z,9.80
2018-05-19T02:03:08.601Z,9.79
2018-05-19T02:04:08.651Z,9.79
2018-05-19T02:05:08.568Z,9.79
2018-05-19T02:06:08.640Z,9.78
2018-05-19T02:07:08.649Z,9.78
2018-05-19T02:08:08.641Z,9.78
2018-05-19T02:09:08.639Z,9.76
2018-05-19T02:10:08.648Z,9.76
2018-05-19T02:11:08.577Z,9.75
2018-05-19T02:12:08.639Z,9.72
2018-05-19T02:13:08.633Z,9.72
2018-05-19T02:14:08.602Z,9.71
2018-05-19T02:15:08.600Z,9.71
2018-05-19T02:16:08.665Z,9.72
2018-05-19T02:17:08.668Z,9.73
2018-05-19T02:18:08.581Z,9.73
2018-05-19T02:19:08.548Z,9.73
2018-05-19T02:20:08.626Z,9.76
2018-05-19T02:21:08.677Z,9.76
2018-05-19T02:22:08.668Z,9.75
2018-05-19T02:23:08.708Z,9.75
2018-05-19T02:24:08.587Z,9.75
2018-05-19T02:25:08.707Z,9.72
2018-05-19T02:26:08.627Z,9.72
2018-05-19T02:27:08.630Z,9.72
2018-05-19T02:28:08.627Z,9.72
2018-05-19T02:29:08.593Z,9.72
2018-05-19T02:30:08.684Z,9.71
2018-05-19T02:31:08.611Z,9.72
2018-05-19T02:32:08.715Z,9.71
2018-05-19T02:33:08.613Z,9.69
2018-05-19T02:34:08.648Z,9.72
2018-05-19T02:35:08.606Z,9.71
2018-05-19T02:36:08.651Z,9.72
2018-05-19T02:37:08.579Z,9.72
2018-05-19T02:38:08.651Z,9.71
2018-05-19T02:39:08.655Z,9.72
2018-05-19T02:40:08.667Z,9.72
2018-05-19T02:41:08.577Z,9.72
2018-05-19T02:42:08.659Z,9.72
2018-05-19T02:43:08.588Z,9.72
2018-05-19T02:44:08.660Z,9.72
2018-05-19T02:45:08.582Z,9.75
2018-05-19T02:46:08.681Z,9.76
2018-05-19T02:47:08.685Z,9.75
2018-05-19T02:48:08.600Z,9.75
2018-05-19T02:49:08.702Z,9.75
2018-05-19T02:50:08.635Z,9.73
2018-05-19T02:51:08.699Z,9.73
2018-05-19T02:52:08.705Z,9.73
2018-05-19T02:53:08.668Z,9.75
2018-05-19T02:54:08.643Z,9.76
2018-05-19T02:55:08.636Z,9.76
2018-05-19T02:56:08.664Z,9.76
2018-05-19T02:57:08.718Z,9.78
2018-05-19T02:58:08.640Z,9.78
2018-05-19T02:59:08.596Z,9.78
2018-05-19T03:00:08.730Z,9.78
2018-05-19T03:01:08.653Z,9.78
2018-05-19T03:02:08.673Z,9.78
2018-05-19T03:03:08.677Z,9.76
2018-05-19T03:04:08.760Z,9.75
2018-05-19T03:05:08.636Z,9.75
2018-05-19T03:06:08.628Z,9.73
2018-05-19T03:07:08.653Z,9.75
2018-05-19T03:08:08.658Z,9.72
2018-05-19T03:09:08.632Z,9.72
2018-05-19T03:10:08.546Z,9.72
2018-05-19T03:11:08.614Z,9.72
2018-05-19T03:12:08.575Z,9.71
2018-05-19T03:13:08.672Z,9.69
2018-05-19T03:14:08.574Z,9.69
2018-05-19T03:15:08.689Z,9.71
2018-05-19T03:16:08.596Z,9.69
2018-05-19T03:17:08.744Z,9.69
2018-05-19T03:18:08.687Z,9.69
2018-05-19T03:19:08.660Z,9.69
2018-05-19T03:20:08.692Z,9.69
2018-05-19T03:21:08.764Z,9.68
2018-05-19T03:22:08.647Z,9.69
2018-05-19T03:23:08.708Z,9.69
2018-05-19T03:24:08.688Z,9.71
2018-05-19T03:25:08.609Z,9.71
2018-05-19T03:26:08.612Z,9.71
2018-05-19T03:27:08.609Z,9.71
2018-05-19T03:28:08.607Z,9.72
2018-05-19T03:29:08.765Z,9.71
2018-05-19T03:30:08.685Z,9.72
2018-05-19T03:31:08.618Z,9.71
2018-05-19T03:32:08.613Z,9.71
2018-05-19T03:33:08.684Z,9.71
2018-05-19T03:34:08.688Z,9.72
2018-05-19T03:35:08.669Z,9.72
2018-05-19T03:36:08.654Z,9.69
2018-05-19T03:37:08.731Z,9.71
2018-05-19T03:38:08.695Z,9.72
2018-05-19T03:39:08.708Z,9.71
2018-05-19T03:40:08.757Z,9.71
2018-05-19T03:41:08.620Z,9.72
2018-05-19T03:42:08.681Z,9.72
2018-05-19T03:43:08.696Z,9.76
2018-05-19T03:44:08.621Z,9.78
2018-05-19T03:45:08.695Z,9.80
2018-05-19T03:46:08.619Z,9.83
2018-05-19T03:47:08.699Z,9.84
2018-05-19T03:48:08.697Z,9.83
2018-05-19T03:49:08.630Z,9.82
2018-05-19T03:50:08.698Z,9.83
2018-05-19T03:51:08.625Z,9.83
2018-05-19T03:52:08.701Z,9.84
2018-05-19T03:53:08.629Z,9.84
2018-05-19T03:54:08.699Z,9.83
2018-05-19T03:55:08.675Z,9.84
2018-05-19T03:56:08.682Z,9.86
2018-05-19T03:57:08.728Z,9.87
2018-05-19T03:58:08.680Z,9.87
2018-05-19T03:59:08.613Z,9.86
2018-05-19T04:00:08.713Z,9.89
2018-05-19T04:01:08.645Z,9.90
2018-05-19T04:02:08.752Z,9.91
2018-05-19T04:03:08.769Z,9.93
2018-05-19T04:04:08.672Z,9.95
2018-05-19T04:05:08.648Z,9.97
2018-05-19T04:06:08.645Z,9.98
2018-05-19T04:07:08.716Z,10.00
2018-05-19T04:08:08.715Z,10.01
2018-05-19T04:09:08.714Z,10.04
2018-05-19T04:10:08.647Z,10.05
2018-05-19T04:11:08.740Z,10.08
2018-05-19T04:12:08.722Z,10.14
2018-05-19T04:13:08.725Z,10.16
2018-05-19T04:14:08.672Z,10.20
2018-05-19T04:15:08.676Z,10.23
2018-05-19T04:16:08.640Z,10.27
2018-05-19T04:17:08.657Z,10.30
2018-05-19T04:18:08.700Z,10.32
2018-05-19T04:19:08.640Z,10.35
2018-05-19T04:20:08.692Z,10.39
2018-05-19T04:21:08.753Z,10.42
2018-05-19T04:22:08.704Z,10.42
2018-05-19T04:23:08.682Z,10.45
2018-05-19T04:24:08.684Z,10.46
2018-05-19T04:25:08.717Z,10.47
2018-05-19T04:26:08.712Z,10.47
2018-05-19T04:27:08.603Z,10.50
2018-05-19T04:28:08.727Z,10.52
2018-05-19T04:29:08.722Z,10.53
2018-05-19T04:30:08.714Z,10.54
2018-05-19T04:31:08.652Z,10.54
2018-05-19T04:32:08.716Z,10.56
2018-05-19T04:33:08.668Z,10.58
2018-05-19T04:34:08.649Z,10.57
2018-05-19T04:35:08.726Z,10.60
2018-05-19T04:36:08.691Z,10.58
2018-05-19T04:37:08.791Z,10.58
2018-05-19T04:38:08.761Z,10.60
2018-05-19T04:39:08.761Z,10.60
2018-05-19T04:40:08.750Z,10.60
2018-05-19T04:41:08.735Z,10.60
2018-05-19T04:42:08.701Z,10.60
2018-05-19T04:43:08.750Z,10.61
2018-05-19T04:44:08.659Z,10.63
2018-05-19T04:45:08.671Z,10.61
2018-05-19T04:46:08.726Z,10.63
2018-05-19T04:47:08.737Z,10.63
2018-05-19T04:48:08.740Z,10.64
2018-05-19T04:49:08.741Z,10.64
2018-05-19T04:50:08.674Z,10.67
2018-05-19T04:51:08.705Z,10.67
2018-05-19T04:52:08.744Z,10.67
2018-05-19T04:53:08.741Z,10.68
2018-05-19T04:54:08.674Z,10.69
2018-05-19T04:55:08.709Z,10.69
2018-05-19T04:56:08.746Z,10.69
2018-05-19T04:57:08.683Z,10.71
2018-05-19T04:58:08.681Z,10.72
2018-05-19T04:59:08.634Z,10.71
2018-05-19T05:00:08.683Z,10.72
2018-05-19T05:01:08.632Z,10.74
2018-05-19T05:02:08.748Z,10.75
2018-05-19T05:03:08.683Z,10.72
2018-05-19T05:04:08.835Z,10.74
2018-05-19T05:05:08.704Z,10.75
2018-05-19T05:06:08.681Z,10.74
2018-05-19T05:07:08.756Z,10.74
2018-05-19T05:08:08.750Z,10.79
2018-05-19T05:09:08.681Z,10.77
2018-05-19T05:10:08.750Z,10.77
2018-05-19T05:11:08.749Z,10.79
2018-05-19T05:12:08.720Z,10.80
2018-05-19T05:13:08.689Z,10.81
2018-05-19T05:14:08.754Z,10.79
2018-05-19T05:15:08.685Z,10.79
2018-05-19T05:16:08.628Z,10.80
2018-05-19T05:17:08.629Z,10.81
2018-05-19T05:18:08.752Z,10.80
2018-05-19T05:19:08.745Z,10.80
2018-05-19T05:20:08.720Z,10.83
2018-05-19T05:21:08.708Z,10.83
2018-05-19T05:22:08.787Z,10.81
2018-05-19T05:23:08.753Z,10.81
2018-05-19T05:24:08.642Z,10.83
2018-05-19T05:25:08.699Z,10.84
2018-05-19T05:26:08.757Z,10.84
2018-05-19T05:27:08.754Z,10.84
2018-05-19T05:28:08.761Z,10.86
2018-05-19T05:29:08.763Z,10.88
2018-05-19T05:30:08.759Z,10.88
2018-05-19T05:31:08.707Z,10.90
2018-05-19T05:32:08.761Z,10.87
2018-05-19T05:33:08.705Z,10.84
2018-05-19T05:34:08.765Z,10.84
2018-05-19T05:35:08.765Z,10.83
2018-05-19T05:36:08.712Z,10.84
2018-05-19T05:37:08.793Z,10.84
2018-05-19T05:38:08.816Z,10.87
2018-05-19T05:39:08.753Z,10.91
2018-05-19T05:40:08.785Z,10.94
2018-05-19T05:41:08.678Z,10.95
2018-05-19T05:42:08.799Z,10.97
2018-05-19T05:43:08.859Z,11.00
2018-05-19T05:44:08.775Z,11.00
2018-05-19T05:45:08.668Z,11.03
2018-05-19T05:46:08.669Z,11.05
2018-05-19T05:47:08.648Z,11.07
2018-05-19T05:48:08.766Z,11.11
2018-05-19T05:49:08.720Z,11.16
2018-05-19T05:50:08.773Z,11.16
2018-05-19T05:51:08.708Z,11.16
2018-05-19T05:52:08.770Z,11.16
2018-05-19T05:53:08.682Z,11.18
2018-05-19T05:54:08.710Z,11.21
2018-05-19T05:55:08.685Z,11.22
2018-05-19T05:56:08.687Z,11.25
2018-05-19T05:57:08.779Z,11.29
2018-05-19T05:58:08.742Z,11.33
2018-05-19T05:59:08.689Z,11.38
2018-05-19T06:00:08.691Z,11.40
2018-05-19T06:01:08.658Z,11.43
2018-05-19T06:02:08.696Z,11.43
2018-05-19T06:03:08.704Z,11.40
2018-05-19T06:04:08.777Z,11.38
2018-05-19T06:05:08.678Z,11.45
2018-05-19T06:06:08.785Z,11.49
2018-05-19T06:07:08.696Z,11.53
2018-05-19T06:08:08.709Z,11.57
2018-05-19T06:09:08.746Z,11.62
2018-05-19T06:10:08.717Z,11.67
2018-05-19T06:11:08.731Z,11.72
2018-05-19T06:12:08.725Z,11.73
2018-05-19T06:13:08.781Z,11.71
2018-05-19T06:14:08.788Z,11.67
2018-05-19T06:15:08.765Z,11.67
2018-05-19T06:16:08.716Z,11.68
2018-05-19T06:17:08.808Z,11.61
2018-05-19T06:18:08.715Z,11.61
2018-05-19T06:19:08.783Z,11.61
2018-05-19T06:20:08.778Z,11.60
2018-05-19T06:21:08.799Z,11.57
2018-05-19T06:22:08.819Z,11.58
2018-05-19T06:23:08.758Z,11.65
2018-05-19T06:24:08.770Z,11.71
2018-05-19T06:25:08.828Z,11.75
2018-05-19T06:26:08.820Z,11.80
2018-05-19T06:27:08.707Z,11.84
2018-05-19T06:28:08.865Z,11.83
2018-05-19T06:29:08.806Z,11.79
2018-05-19T06:30:08.806Z,11.80
2018-05-19T06:31:08.835Z,11.80
2018-05-19T06:32:08.839Z,11.82
2018-05-19T06:33:08.843Z,11.83
2018-05-19T06:34:08.748Z,11.83
2018-05-19T06:35:08.774Z,11.87
2018-05-19T06:36:08.744Z,11.86
2018-05-19T06:37:08.783Z,11.87
2018-05-19T06:38:08.811Z,11.94
2018-05-19T06:39:08.743Z,11.99
2018-05-19T06:40:08.697Z,11.99
2018-05-19T06:41:08.747Z,11.94
2018-05-19T06:42:08.835Z,11.87
2018-05-19T06:43:08.813Z,11.82
2018-05-19T06:44:08.815Z,11.87
2018-05-19T06:45:08.772Z,11.89
2018-05-19T06:46:08.830Z,11.87
2018-05-19T06:47:08.772Z,11.89
2018-05-19T06:48:08.804Z,11.87
2018-05-19T06:49:08.795Z,11.84
2018-05-19T06:50:08.743Z,11.82
2018-05-19T06:51:08.793Z,11.75
2018-05-19T06:52:08.735Z,11.79
2018-05-19T06:53:08.856Z,11.79
2018-05-19T06:54:08.854Z,11.80
2018-05-19T06:55:08.723Z,11.84
2018-05-19T06:56:08.796Z,11.89
2018-05-19T06:57:08.810Z,11.97
2018-05-19T06:58:08.804Z,11.94
2018-05-19T06:59:08.800Z,12.02
2018-05-19T07:00:08.684Z,12.05
2018-05-19T07:01:08.759Z,12.05
2018-05-19T07:02:08.728Z,12.06
2018-05-19T07:03:08.776Z,12.05
2018-05-19T07:04:08.691Z,12.08
2018-05-19T07:05:08.815Z,12.12
2018-05-19T07:06:08.728Z,12.20
2018-05-19T07:07:08.814Z,12.24
2018-05-19T07:08:08.754Z,12.25
2018-05-19T07:09:08.837Z,12.24
2018-05-19T07:10:08.811Z,12.28
2018-05-19T07:11:08.733Z,12.40
2018-05-19T07:12:08.809Z,12.51
2018-05-19T07:13:08.797Z,12.61
2018-05-19T07:14:08.698Z,12.69
2018-05-19T07:15:08.872Z,12.72
2018-05-19T07:16:08.819Z,12.80
2018-05-19T07:17:08.848Z,12.80
2018-05-19T07:18:08.874Z,12.73
2018-05-19T07:19:08.869Z,12.82
2018-05-19T07:20:08.812Z,12.83
2018-05-19T07:21:08.814Z,12.80
2018-05-19T07:22:08.840Z,12.89
2018-05-19T07:23:08.838Z,12.89
2018-05-19T07:24:08.817Z,12.95
2018-05-19T07:25:08.772Z,12.94
2018-05-19T07:26:08.839Z,12.92
2018-05-19T07:27:08.840Z,12.96
2018-05-19T07:28:08.775Z,13.07
2018-05-19T07:29:08.906Z,13.09
2018-05-19T07:30:08.840Z,13.13
2018-05-19T07:31:08.822Z,13.20
2018-05-19T07:32:08.791Z,13.14
2018-05-19T07:33:08.844Z,13.18
2018-05-19T07:34:08.814Z,13.18
2018-05-19T07:35:08.829Z,13.20
2018-05-19T07:36:08.801Z,13.23
2018-05-19T07:37:08.844Z,13.28
2018-05-19T07:38:08.878Z,13.29
2018-05-19T07:39:08.771Z,13.40
2018-05-19T07:40:08.881Z,13.42
2018-05-19T07:41:08.850Z,13.31
2018-05-19T07:42:08.815Z,13.32
2018-05-19T07:43:08.894Z,13.39
2018-05-19T07:44:08.857Z,13.45
2018-05-19T07:45:08.918Z,13.50
2018-05-19T07:46:08.757Z,13.57
2018-05-19T07:47:08.760Z,13.64
2018-05-19T07:48:08.778Z,13.69
2018-05-19T07:49:08.845Z,13.65
2018-05-19T07:50:08.814Z,13.69
2018-05-19T07:51:08.766Z,13.77
2018-05-19T07:52:08.770Z,13.79
2018-05-19T07:53:08.783Z,13.91
2018-05-19T07:54:08.849Z,13.75
2018-05-19T07:55:08.765Z,13.77
2018-05-19T07:56:08.883Z,13.91
2018-05-19T07:57:08.827Z,13.91
2018-05-19T07:58:08.840Z,13.84
2018-05-19T07:59:08.864Z,13.86
2018-05-19T08:00:08.837Z,13.92
2018-05-19T08:01:08.873Z,14.00
2018-05-19T08:02:08.904Z,14.03
2018-05-19T08:03:08.864Z,14.04
2018-05-19T08:04:08.903Z,14.13
2018-05-19T08:05:08.798Z,14.18
2018-05-19T08:06:08.798Z,14.18
2018-05-19T08:07:08.820Z,14.18
2018-05-19T08:08:08.845Z,14.17
2018-05-19T08:09:08.862Z,14.20
2018-05-19T08:10:08.763Z,14.27
2018-05-19T08:11:08.755Z,14.32
2018-05-19T08:12:08.805Z,14.39
2018-05-19T08:13:08.775Z,14.53
2018-05-19T08:14:08.858Z,14.58
2018-05-19T08:15:08.798Z,14.54
2018-05-19T08:16:08.769Z,14.54
2018-05-19T08:17:08.880Z,14.50
2018-05-19T08:18:08.876Z,14.42
2018-05-19T08:19:08.872Z,14.39
2018-05-19T08:20:08.836Z,14.35
2018-05-19T08:21:08.878Z,14.44
2018-05-19T08:22:08.878Z,14.47
2018-05-19T08:23:08.813Z,14.58
2018-05-19T08:24:08.879Z,14.73
2018-05-19T08:25:08.845Z,14.69
2018-05-19T08:26:08.883Z,14.60
2018-05-19T08:27:08.960Z,14.75
2018-05-19T08:28:08.854Z,14.79
2018-05-19T08:29:08.856Z,14.87
2018-05-19T08:30:08.851Z,15.00
2018-05-19T08:31:08.804Z,15.00
2018-05-19T08:32:08.858Z,15.00
2018-05-19T08:33:08.891Z,15.07
2018-05-19T08:34:08.902Z,15.17
2018-05-19T08:35:08.973Z,15.22
2018-05-19T08:36:08.916Z,15.19
2018-05-19T08:37:08.915Z,15.13
2018-05-19T08:38:08.917Z,15.29
2018-05-19T08:39:08.865Z,15.36
2018-05-19T08:40:08.857Z,15.29
2018-05-19T08:41:08.980Z,15.48
2018-05-19T08:42:08.794Z,15.55
2018-05-19T08:43:08.893Z,15.51
2018-05-19T08:44:08.856Z,15.42
2018-05-19T08:45:08.829Z,15.35
2018-05-19T08:46:08.832Z,15.32
2018-05-19T08:47:08.974Z,15.48
2018-05-19T08:48:08.990Z,15.61
2018-05-19T08:49:08.896Z,15.64
2018-05-19T08:50:08.831Z,15.64
2018-05-19T08:51:08.893Z,15.39
2018-05-19T08:52:08.897Z,15.44
2018-05-19T08:53:08.900Z,15.61
2018-05-19T08:54:08.896Z,15.51
2018-05-19T08:55:08.900Z,15.54
2018-05-19T08:56:08.870Z,15.70
2018-05-19T08:57:08.908Z,15.79
2018-05-19T08:58:08.995Z,15.83
2018-05-19T08:59:08.935Z,15.82
2018-05-19T09:00:08.930Z,15.75
2018-05-19T09:01:08.861Z,15.47
2018-05-19T09:02:08.866Z,15.32
2018-05-19T09:03:08.920Z,15.47
2018-05-19T09:04:08.883Z,15.39
2018-05-19T09:05:08.824Z,15.39
2018-05-19T09:06:08.780Z,15.36
2018-05-19T09:07:08.902Z,15.42
2018-05-19T09:08:08.781Z,15.28
2018-05-19T09:09:08.963Z,15.17
2018-05-19T09:10:08.798Z,15.28
2018-05-19T09:11:08.834Z,15.17
2018-05-19T09:12:08.899Z,14.96
2018-05-19T09:13:08.803Z,14.79
2018-05-19T09:14:08.857Z,14.61
2018-05-19T09:15:08.836Z,14.65
2018-05-19T09:16:08.920Z,14.66
2018-05-19T09:17:08.869Z,14.71
2018-05-19T09:18:08.943Z,14.78
2018-05-19T09:19:08.946Z,14.73
2018-05-19T09:20:08.952Z,14.76
2018-05-19T09:21:08.854Z,14.71
2018-05-19T09:22:08.840Z,14.65
2018-05-19T09:23:08.995Z,14.53
2018-05-19T09:24:08.876Z,14.55
2018-05-19T09:25:08.890Z,14.71
2018-05-19T09:26:08.951Z,14.75
2018-05-19T09:27:08.921Z,14.60
2018-05-19T09:28:08.836Z,14.68
2018-05-19T09:29:08.830Z,14.83
2018-05-19T09:30:08.943Z,14.92
2018-05-19T09:31:08.922Z,14.98
2018-05-19T09:32:08.891Z,15.06
2018-05-19T09:33:08.922Z,15.11
2018-05-19T09:34:08.924Z,15.14
2018-05-19T09:35:08.848Z,15.11
2018-05-19T09:36:08.923Z,15.03
2018-05-19T09:37:08.848Z,15.02
2018-05-19T09:38:08.870Z,14.94
2018-05-19T09:39:08.924Z,14.82
2018-05-19T09:40:08.918Z,14.87
2018-05-19T09:41:08.814Z,14.94
2018-05-19T09:42:08.851Z,15.03
2018-05-19T09:43:08.837Z,14.98
2018-05-19T09:44:08.924Z,15.03
2018-05-19T09:45:08.922Z,15.00
2018-05-19T09:46:08.961Z,15.07
2018-05-19T09:47:08.949Z,15.11
2018-05-19T09:48:08.875Z,15.15
2018-05-19T09:49:08.861Z,15.21
2018-05-19T09:50:08.908Z,15.13
2018-05-19T09:51:08.971Z,15.08
2018-05-19T09:52:08.935Z,14.89
2018-05-19T09:53:08.931Z,15.03
2018-05-19T09:54:08.939Z,15.04
2018-05-19T09:55:08.918Z,15.11
2018-05-19T09:56:08.877Z,15.10
2018-05-19T09:57:08.910Z,15.17
2018-05-19T09:58:08.958Z,15.07
2018-05-19T09:59:08.907Z,15.13
2018-05-19T10:00:08.915Z,15.17
2018-05-19T10:01:08.941Z,15.19
2018-05-19T10:02:08.901Z,15.25
2018-05-19T10:03:08.927Z,15.28
2018-05-19T10:04:08.945Z,15.26
2018-05-19T10:05:09.037Z,15.36
2018-05-19T10:06:08.843Z,15.42
2018-05-19T10:07:08.884Z,15.53
2018-05-19T10:08:08.947Z,15.68
2018-05-19T10:09:08.963Z,15.77
2018-05-19T10:10:08.888Z,15.88
2018-05-19T10:11:08.992Z,16.00
2018-05-19T10:12:08.855Z,16.03
2018-05-19T10:13:08.904Z,16.06
2018-05-19T10:14:08.925Z,16.14
2018-05-19T10:15:08.967Z,16.20
2018-05-19T10:16:08.992Z,16.25
2018-05-19T10:17:08.984Z,16.31
2018-05-19T10:18:08.918Z,16.25
2018-05-19T10:19:08.877Z,16.18
2018-05-19T10:20:08.927Z,16.07
2018-05-19T10:21:08.898Z,15.99
2018-05-19T10:22:08.920Z,16.03
2018-05-19T10:23:09.027Z,15.93
2018-05-19T10:24:08.919Z,15.93
2018-05-19T10:25:08.937Z,15.90
2018-05-19T10:26:08.959Z,16.00
2018-05-19T10:27:09.000Z,16.11
2018-05-19T10:28:08.945Z,16.20
2018-05-19T10:29:08.940Z,16.32
2018-05-19T10:30:08.997Z,16.41
2018-05-19T10:31:08.938Z,16.54
2018-05-19T10:32:08.885Z,16.79
2018-05-19T10:33:08.989Z,16.99
2018-05-19T10:34:08.939Z,17.20
2018-05-19T10:35:08.922Z,17.31
2018-05-19T10:36:08.905Z,17.28
2018-05-19T10:37:08.901Z,17.20
2018-05-19T10:38:08.835Z,17.08
2018-05-19T10:39:08.905Z,17.26
2018-05-19T10:40:08.958Z,17.49
2018-05-19T10:41:08.902Z,17.65
2018-05-19T10:42:08.872Z,17.76
2018-05-19T10:43:08.964Z,18.10
2018-05-19T10:44:08.969Z,17.84
2018-05-19T10:45:08.954Z,17.83
2018-05-19T10:46:08.976Z,17.95
2018-05-19T10:47:09.016Z,18.13
2018-05-19T10:48:08.942Z,18.23
2018-05-19T10:49:08.898Z,18.12
2018-05-19T10:50:08.930Z,18.21
2018-05-19T10:51:08.915Z,18.27
2018-05-19T10:52:08.979Z,18.47
2018-05-19T10:53:09.038Z,18.23
2018-05-19T10:54:08.974Z,17.76
2018-05-19T10:55:08.949Z,17.77
2018-05-19T10:56:08.919Z,17.84
2018-05-19T10:57:08.879Z,18.00
2018-05-19T10:58:08.884Z,18.10
2018-05-19T10:59:08.901Z,18.12
2018-05-19T11:00:09.015Z,17.94
2018-05-19T11:01:09.008Z,17.66
2018-05-19T11:02:09.018Z,17.79
2018-05-19T11:03:08.985Z,17.73
2018-05-19T11:04:09.013Z,17.80
2018-05-19T11:05:08.938Z,17.88
2018-05-19T11:06:08.947Z,17.84
2018-05-19T11:07:09.025Z,17.64
2018-05-19T11:08:08.910Z,17.43
2018-05-19T11:09:08.943Z,17.31
2018-05-19T11:10:08.887Z,17.28
2018-05-19T11:11:09.017Z,16.98
2018-05-19T11:12:08.960Z,16.87
2018-05-19T11:13:08.990Z,16.87
2018-05-19T11:14:08.970Z,16.98
2018-05-19T11:15:08.989Z,16.92
2018-05-19T11:16:08.925Z,16.87
2018-05-19T11:17:08.992Z,16.91
2018-05-19T11:18:08.927Z,16.92
2018-05-19T11:19:08.889Z,16.95
2018-05-19T11:20:08.928Z,16.97
2018-05-19T11:21:09.019Z,16.95
2018-05-19T11:22:08.929Z,17.06
2018-05-19T11:23:08.927Z,17.14
2018-05-19T11:24:08.929Z,17.09
2018-05-19T11:25:09.000Z,17.09
2018-05-19T11:26:09.032Z,17.20
2018-05-19T11:27:08.967Z,17.16
2018-05-19T11:28:09.028Z,17.22
2018-05-19T11:29:08.937Z,17.25
2018-05-19T11:30:08.935Z,17.40
2018-05-19T11:31:08.953Z,17.50
2018-05-19T11:32:08.964Z,17.61
2018-05-19T11:33:09.000Z,17.55
2018-05-19T11:34:08.946Z,17.43
2018-05-19T11:35:09.001Z,17.44
2018-05-19T11:36:09.004Z,17.42
2018-05-19T11:37:09.004Z,17.50
2018-05-19T11:38:08.939Z,17.46
2018-05-19T11:39:08.945Z,17.46
2018-05-19T11:40:09.010Z,17.46
2018-05-19T11:41:09.006Z,17.32
2018-05-19T11:42:08.937Z,17.36
2018-05-19T11:43:08.942Z,17.42
2018-05-19T11:44:08.990Z,17.51
2018-05-19T11:45:09.008Z,17.65
2018-05-19T11:46:08.944Z,17.62
2018-05-19T11:47:09.010Z,17.73
2018-05-19T11:48:08.947Z,17.91
2018-05-19T11:49:08.943Z,17.98
2018-05-19T11:50:08.944Z,17.95
2018-05-19T11:51:08.943Z,17.96
2018-05-19T11:52:09.009Z,17.98
2018-05-19T11:53:08.948Z,18.00
2018-05-19T11:54:09.018Z,18.16
2018-05-19T11:55:09.014Z,18.16
2018-05-19T11:56:08.997Z,17.94
2018-05-19T11:57:09.124Z,17.98
2018-05-19T11:58:09.049Z,18.00
2018-05-19T11:59:09.017Z,18.05
2018-05-19T12:00:09.066Z,18.13
2018-05-19T12:01:08.979Z,18.24
2018-05-19T12:02:08.990Z,18.43
2018-05-19T12:03:09.055Z,18.59
2018-05-19T12:04:09.048Z,18.65
2018-05-19T12:05:08.923Z,18.84
2018-05-19T12:06:08.962Z,19.02
2018-05-19T12:07:09.019Z,19.28
2018-05-19T12:08:09.004Z,19.46
2018-05-19T12:09:08.945Z,19.47
2018-05-19T12:10:08.967Z,19.55
2018-05-19T12:11:09.053Z,19.70
2018-05-19T12:12:09.065Z,19.90
2018-05-19T12:13:09.010Z,19.90
2018-05-19T12:14:08.969Z,20.12
2018-05-19T12:15:09.066Z,20.25
2018-05-19T12:16:08.970Z,20.35
2018-05-19T12:17:09.031Z,20.10
2018-05-19T12:18:08.963Z,19.95
2018-05-19T12:19:08.980Z,19.73
2018-05-19T12:20:09.034Z,19.84
2018-05-19T12:21:09.038Z,20.36
2018-05-19T12:22:08.976Z,20.57
2018-05-19T12:23:09.035Z,20.25
2018-05-19T12:24:09.036Z,19.92
2018-05-19T12:25:09.035Z,19.79
2018-05-19T12:26:08.935Z,19.68
2018-05-19T12:27:08.992Z,19.44
2018-05-19T12:28:09.026Z,19.19
2018-05-19T12:29:09.059Z,19.02
2018-05-19T12:30:09.028Z,18.90
2018-05-19T12:31:09.033Z,18.70
2018-05-19T12:32:08.906Z,18.48
2018-05-19T12:33:08.976Z,18.69
2018-05-19T12:34:09.033Z,18.81
2018-05-19T12:35:08.982Z,19.17
2018-05-19T12:36:08.963Z,19.60
2018-05-19T12:37:09.064Z,20.05
2018-05-19T12:38:08.968Z,20.14
2018-05-19T12:39:09.006Z,20.58
2018-05-19T12:40:09.079Z,20.07
2018-05-19T12:41:09.084Z,20.01
2018-05-19T12:42:09.005Z,20.32
2018-05-19T12:43:09.002Z,19.91
2018-05-19T12:44:08.950Z,19.58
2018-05-19T12:45:08.987Z,20.01
2018-05-19T12:46:09.070Z,20.10
2018-05-19T12:47:09.054Z,20.41
2018-05-19T12:48:09.061Z,20.66
2018-05-19T12:49:09.052Z,20.66
2018-05-19T12:50:09.051Z,20.43
2018-05-19T12:51:09.051Z,20.10
2018-05-19T12:52:09.054Z,19.72
2018-05-19T12:53:08.989Z,19.43
2018-05-19T12:54:08.986Z,19.08
2018-05-19T12:55:08.987Z,18.76
2018-05-19T12:56:08.977Z,18.65
2018-05-19T12:57:08.960Z,18.31
2018-05-19T12:58:09.072Z,18.40
2018-05-19T12:59:09.056Z,18.32
2018-05-19T13:00:09.087Z,18.25